sensor_id;sensor_type;location;lat;lon;timestamp;pressure;altitude;pressure_sealevel;temperature;humidity
5780;BME280;2916;49.798;10.022;2023-03-15T00:01:19;145007.16;;;2.78;96.50
5780;BME280;2916;49.798;10.022;2023-03-15T00:03:48;144998.53;;;2.75;96.18
5780;BME280;2916;49.798;10.022;2023-03-15T00:06:16;144965.25;;;2.61;95.49
5780;BME280;2916;49.798;10.022;2023-03-15T00:08:43;144988.66;;;2.70;95.72
5780;BME280;2916;49.798;10.022;2023-03-15T00:11:12;144989.88;;;2.71;95.82
5780;BME280;2916;49.798;10.022;2023-03-15T00:13:41;144994.84;;;2.73;95.63
5780;BME280;2916;49.798;10.022;2023-03-15T00:16:09;144987.44;;;2.70;95.23
5780;BME280;2916;49.798;10.022;2023-03-15T00:18:36;144970.16;;;2.63;94.78
5780;BME280;2916;49.798;10.022;2023-03-15T00:21:03;144952.91;;;2.56;94.19
5780;BME280;2916;49.798;10.022;2023-03-15T00:23:31;144984.97;;;2.69;94.16
5780;BME280;2916;49.798;10.022;2023-03-15T00:25:58;144982.53;;;2.68;94.74
5780;BME280;2916;49.798;10.022;2023-03-15T00:28:25;144973.88;;;2.64;94.62
5780;BME280;2916;49.798;10.022;2023-03-15T00:31:05;144886.31;;;2.28;94.64
5780;BME280;2916;49.798;10.022;2023-03-15T00:33:32;144972.66;;;2.64;94.49
5780;BME280;2916;49.798;10.022;2023-03-15T00:36:03;144975.09;;;2.65;94.35
5780;BME280;2916;49.798;10.022;2023-03-15T00:38:31;144972.66;;;2.64;94.89
5780;BME280;2916;49.798;10.022;2023-03-15T00:41:03;144920.81;;;2.42;95.11
5780;BME280;2916;49.798;10.022;2023-03-15T00:43:30;144943.06;;;2.52;95.29
5780;BME280;2916;49.798;10.022;2023-03-15T00:45:58;144967.69;;;2.62;95.71
5780;BME280;2916;49.798;10.022;2023-03-15T00:48:27;144962.78;;;2.60;95.77
5780;BME280;2916;49.798;10.022;2023-03-15T00:51:03;144965.25;;;2.61;95.79
5780;BME280;2916;49.798;10.022;2023-03-15T00:53:31;144945.50;;;2.53;95.84
5780;BME280;2916;49.798;10.022;2023-03-15T00:56:03;144940.56;;;2.51;95.57
5780;BME280;2916;49.798;10.022;2023-03-15T00:58:30;144938.09;;;2.50;95.89
5780;BME280;2916;49.798;10.022;2023-03-15T01:00:58;144908.50;;;2.37;95.65
5780;BME280;2916;49.798;10.022;2023-03-15T01:03:27;144915.91;;;2.40;95.58
5780;BME280;2916;49.798;10.022;2023-03-15T01:05:55;144904.81;;;2.36;96.05
5780;BME280;2916;49.798;10.022;2023-03-15T01:08:22;144893.69;;;2.31;95.65
5780;BME280;2916;49.798;10.022;2023-03-15T01:10:50;144882.59;;;2.27;96.03
5780;BME280;2916;49.798;10.022;2023-03-15T01:13:17;144903.53;;;2.35;96.35
5780;BME280;2916;49.798;10.022;2023-03-15T01:15:45;144893.69;;;2.31;96.71
5780;BME280;2916;49.798;10.022;2023-03-15T01:18:13;144870.28;;;2.21;96.48
5780;BME280;2916;49.798;10.022;2023-03-15T01:20:43;144871.50;;;2.22;96.50
5780;BME280;2916;49.798;10.022;2023-03-15T01:23:10;144873.94;;;2.23;97.11
5780;BME280;2916;49.798;10.022;2023-03-15T01:25:37;144869.03;;;2.21;97.35
5780;BME280;2916;49.798;10.022;2023-03-15T01:28:05;144866.53;;;2.20;96.69
5780;BME280;2916;49.798;10.022;2023-03-15T01:30:33;144836.94;;;2.08;96.49
5780;BME280;2916;49.798;10.022;2023-03-15T01:33:00;144832.03;;;2.06;97.15
5780;BME280;2916;49.798;10.022;2023-03-15T01:35:28;144819.72;;;2.01;97.62
5780;BME280;2916;49.798;10.022;2023-03-15T01:37:56;144839.44;;;2.09;97.92
5780;BME280;2916;49.798;10.022;2023-03-15T01:40:23;144783.97;;;1.86;98.17
5780;BME280;2916;49.798;10.022;2023-03-15T01:42:53;144820.94;;;2.01;98.90
5780;BME280;2916;49.798;10.022;2023-03-15T01:46:25;144764.25;;;1.78;98.86
5780;BME280;2916;49.798;10.022;2023-03-15T01:48:59;144822.19;;;2.02;99.51
5780;BME280;2916;49.798;10.022;2023-03-15T01:51:34;144804.91;;;1.94;99.17
5780;BME280;2916;49.798;10.022;2023-03-15T01:54:07;144742.00;;;1.68;99.32
5780;BME280;2916;49.798;10.022;2023-03-15T01:56:39;144722.31;;;1.60;99.56
5780;BME280;2916;49.798;10.022;2023-03-15T01:59:13;144772.88;;;1.81;99.54
5780;BME280;2916;49.798;10.022;2023-03-15T02:01:44;144775.31;;;1.82;99.52
5780;BME280;2916;49.798;10.022;2023-03-15T02:04:16;144769.16;;;1.80;98.99
5780;BME280;2916;49.798;10.022;2023-03-15T02:06:46;144767.91;;;1.79;99.23
5780;BME280;2916;49.798;10.022;2023-03-15T02:09:17;144756.84;;;1.75;99.90
5780;BME280;2916;49.798;10.022;2023-03-15T02:11:47;144746.97;;;1.70;99.53
5780;BME280;2916;49.798;10.022;2023-03-15T02:14:15;144734.66;;;1.65;100.00
5780;BME280;2916;49.798;10.022;2023-03-15T02:16:42;144728.47;;;1.63;99.93
5780;BME280;2916;49.798;10.022;2023-03-15T02:19:31;144745.75;;;1.70;100.00
5780;BME280;2916;49.798;10.022;2023-03-15T02:22:16;144730.94;;;1.64;100.00
5780;BME280;2916;49.798;10.022;2023-03-15T02:24:57;144691.50;;;1.47;100.00
5780;BME280;2916;49.798;10.022;2023-03-15T02:27:29;144703.81;;;1.53;100.00
5780;BME280;2916;49.798;10.022;2023-03-15T02:30:01;144676.69;;;1.41;100.00
5780;BME280;2916;49.798;10.022;2023-03-15T02:32:29;144696.44;;;1.50;100.00
5780;BME280;2916;49.798;10.022;2023-03-15T02:34:56;144692.72;;;1.48;100.00
5780;BME280;2916;49.798;10.022;2023-03-15T02:37:24;144675.47;;;1.41;100.00
5780;BME280;2916;49.798;10.022;2023-03-15T02:39:51;144674.22;;;1.40;100.00
5780;BME280;2916;49.798;10.022;2023-03-15T02:42:18;144652.06;;;1.31;100.00
5780;BME280;2916;49.798;10.022;2023-03-15T02:44:49;144650.84;;;1.31;100.00
5780;BME280;2916;49.798;10.022;2023-03-15T02:47:21;144654.53;;;1.32;100.00
5780;BME280;2916;49.798;10.022;2023-03-15T02:49:52;144638.50;;;1.26;100.00
5780;BME280;2916;49.798;10.022;2023-03-15T02:52:21;144623.72;;;1.19;100.00
5780;BME280;2916;49.798;10.022;2023-03-15T02:54:48;144632.34;;;1.23;100.00
5780;BME280;2916;49.798;10.022;2023-03-15T02:57:18;144602.78;;;1.11;100.00
5780;BME280;2916;49.798;10.022;2023-03-15T02:59:47;144602.78;;;1.11;100.00
5780;BME280;2916;49.798;10.022;2023-03-15T03:02:15;144596.59;;;1.08;100.00
5780;BME280;2916;49.798;10.022;2023-03-15T03:04:42;144580.56;;;1.02;100.00
5780;BME280;2916;49.798;10.022;2023-03-15T03:07:10;144575.69;;;1.00;100.00
5780;BME280;2916;49.798;10.022;2023-03-15T03:09:38;144548.56;;;0.88;100.00
5780;BME280;2916;49.798;10.022;2023-03-15T03:12:06;144575.69;;;1.00;100.00
5780;BME280;2916;49.798;10.022;2023-03-15T03:14:33;144584.31;;;1.03;100.00
5780;BME280;2916;49.798;10.022;2023-03-15T03:17:01;144559.66;;;0.93;100.00
5780;BME280;2916;49.798;10.022;2023-03-15T03:19:29;144551.00;;;0.89;100.00
5780;BME280;2916;49.798;10.022;2023-03-15T03:21:56;144552.25;;;0.90;100.00
5780;BME280;2916;49.798;10.022;2023-03-15T03:24:23;144546.13;;;0.87;100.00
5780;BME280;2916;49.798;10.022;2023-03-15T03:26:51;144541.16;;;0.85;100.00
5780;BME280;2916;49.798;10.022;2023-03-15T03:29:22;144538.72;;;0.84;100.00
5780;BME280;2916;49.798;10.022;2023-03-15T03:31:50;144551.00;;;0.89;100.00
5780;BME280;2916;49.798;10.022;2023-03-15T03:34:18;144532.53;;;0.82;100.00
5780;BME280;2916;49.798;10.022;2023-03-15T03:36:45;144517.78;;;0.76;100.00
5780;BME280;2916;49.798;10.022;2023-03-15T03:39:13;144532.53;;;0.82;100.00
5780;BME280;2916;49.798;10.022;2023-03-15T03:41:40;144507.94;;;0.71;100.00
5780;BME280;2916;49.798;10.022;2023-03-15T03:44:08;144499.31;;;0.68;100.00
5780;BME280;2916;49.798;10.022;2023-03-15T03:46:35;144501.75;;;0.69;100.00
5780;BME280;2916;49.798;10.022;2023-03-15T03:49:02;144511.59;;;0.73;100.00
5780;BME280;2916;49.798;10.022;2023-03-15T03:51:31;144501.75;;;0.69;100.00
5780;BME280;2916;49.798;10.022;2023-03-15T03:53:58;144504.19;;;0.70;100.00
5780;BME280;2916;49.798;10.022;2023-03-15T03:56:26;144505.44;;;0.70;100.00
5780;BME280;2916;49.798;10.022;2023-03-15T03:58:53;144489.44;;;0.64;100.00
5780;BME280;2916;49.798;10.022;2023-03-15T04:01:20;144489.44;;;0.64;100.00
5780;BME280;2916;49.798;10.022;2023-03-15T04:03:48;144467.25;;;0.55;100.00
5780;BME280;2916;49.798;10.022;2023-03-15T04:06:15;144466.03;;;0.54;100.00
5780;BME280;2916;49.798;10.022;2023-03-15T04:08:44;144464.78;;;0.54;100.00
5780;BME280;2916;49.798;10.022;2023-03-15T04:11:11;144466.03;;;0.54;100.00
5780;BME280;2916;49.798;10.022;2023-03-15T04:13:42;144446.31;;;0.46;100.00
5780;BME280;2916;49.798;10.022;2023-03-15T04:16:10;144452.50;;;0.48;100.00
5780;BME280;2916;49.798;10.022;2023-03-15T04:18:37;144435.25;;;0.41;100.00
5780;BME280;2916;49.798;10.022;2023-03-15T04:21:05;144434.03;;;0.41;100.00
5780;BME280;2916;49.798;10.022;2023-03-15T04:23:36;144418.00;;;0.34;100.00
5780;BME280;2916;49.798;10.022;2023-03-15T04:26:05;144408.16;;;0.30;100.00
5780;BME280;2916;49.798;10.022;2023-03-15T04:28:32;144419.22;;;0.35;100.00
5780;BME280;2916;49.798;10.022;2023-03-15T04:31:02;144415.53;;;0.33;100.00
5780;BME280;2916;49.798;10.022;2023-03-15T04:33:35;144400.75;;;0.27;100.00
5780;BME280;2916;49.798;10.022;2023-03-15T04:36:02;144373.69;;;0.16;100.00
5780;BME280;2916;49.798;10.022;2023-03-15T04:38:29;144355.22;;;0.08;100.00
5780;BME280;2916;49.798;10.022;2023-03-15T04:40:57;144366.31;;;0.13;100.00
5780;BME280;2916;49.798;10.022;2023-03-15T04:43:25;144366.31;;;0.13;100.00
5780;BME280;2916;49.798;10.022;2023-03-15T04:45:52;144363.81;;;0.12;100.00
5780;BME280;2916;49.798;10.022;2023-03-15T04:48:20;144365.06;;;0.12;100.00
5780;BME280;2916;49.798;10.022;2023-03-15T04:50:47;144353.97;;;0.08;100.00
5780;BME280;2916;49.798;10.022;2023-03-15T04:53:14;144350.28;;;0.06;100.00
5780;BME280;2916;49.798;10.022;2023-03-15T04:55:41;144357.69;;;0.09;100.00
5780;BME280;2916;49.798;10.022;2023-03-15T04:58:08;144346.59;;;0.05;100.00
5780;BME280;2916;49.798;10.022;2023-03-15T05:00:37;144361.34;;;0.11;100.00
5780;BME280;2916;49.798;10.022;2023-03-15T05:03:04;144345.38;;;0.04;100.00
5780;BME280;2916;49.798;10.022;2023-03-15T05:05:32;144353.97;;;0.08;100.00
5780;BME280;2916;49.798;10.022;2023-03-15T05:07:59;144353.97;;;0.08;100.00
5780;BME280;2916;49.798;10.022;2023-03-15T05:10:27;144345.38;;;0.04;100.00
5780;BME280;2916;49.798;10.022;2023-03-15T05:12:55;144329.38;;;-0.03;100.00
5780;BME280;2916;49.798;10.022;2023-03-15T05:15:22;144321.97;;;-0.06;100.00
5780;BME280;2916;49.798;10.022;2023-03-15T05:17:51;144315.78;;;-0.08;100.00
5780;BME280;2916;49.798;10.022;2023-03-15T05:20:20;144308.44;;;-0.11;100.00
5780;BME280;2916;49.798;10.022;2023-03-15T05:22:48;144312.13;;;-0.10;100.00
5780;BME280;2916;49.798;10.022;2023-03-15T05:25:18;144292.44;;;-0.18;100.00
5780;BME280;2916;49.798;10.022;2023-03-15T05:27:45;144292.44;;;-0.18;100.00
5780;BME280;2916;49.798;10.022;2023-03-15T05:30:13;144287.50;;;-0.20;100.00
5780;BME280;2916;49.798;10.022;2023-03-15T05:32:41;144290.00;;;-0.19;100.00
5780;BME280;2916;49.798;10.022;2023-03-15T05:35:12;144285.03;;;-0.21;100.00
5780;BME280;2916;49.798;10.022;2023-03-15T05:37:39;144275.19;;;-0.25;100.00
5780;BME280;2916;49.798;10.022;2023-03-15T05:40:09;144281.38;;;-0.22;100.00
5780;BME280;2916;49.798;10.022;2023-03-15T05:42:36;144282.59;;;-0.22;100.00
5780;BME280;2916;49.798;10.022;2023-03-15T05:45:05;144294.88;;;-0.17;100.00
5780;BME280;2916;49.798;10.022;2023-03-15T05:47:32;144302.28;;;-0.14;100.00
5780;BME280;2916;49.798;10.022;2023-03-15T05:49:59;144298.59;;;-0.15;100.00
5780;BME280;2916;49.798;10.022;2023-03-15T05:52:28;144314.56;;;-0.09;100.00
5780;BME280;2916;49.798;10.022;2023-03-15T05:54:55;144326.91;;;-0.04;100.00
5780;BME280;2916;49.798;10.022;2023-03-15T05:57:22;144334.25;;;-0.01;100.00
5780;BME280;2916;49.798;10.022;2023-03-15T05:59:49;144350.28;;;0.06;100.00
5780;BME280;2916;49.798;10.022;2023-03-15T06:02:16;144361.34;;;0.11;100.00
5780;BME280;2916;49.798;10.022;2023-03-15T06:04:43;144357.69;;;0.09;100.00
5780;BME280;2916;49.798;10.022;2023-03-15T06:07:11;144367.53;;;0.13;100.00
5780;BME280;2916;49.798;10.022;2023-03-15T06:09:39;144371.19;;;0.15;100.00
5780;BME280;2916;49.798;10.022;2023-03-15T06:12:06;144379.81;;;0.18;100.00
5780;BME280;2916;49.798;10.022;2023-03-15T06:14:34;144395.84;;;0.25;100.00
5780;BME280;2916;49.798;10.022;2023-03-15T06:17:01;144397.06;;;0.26;100.00
5780;BME280;2916;49.798;10.022;2023-03-15T06:19:28;144403.25;;;0.28;100.00
5780;BME280;2916;49.798;10.022;2023-03-15T06:21:55;144418.00;;;0.34;100.00
5780;BME280;2916;49.798;10.022;2023-03-15T06:24:22;144429.06;;;0.39;100.00
5780;BME280;2916;49.798;10.022;2023-03-15T06:26:51;144410.59;;;0.31;100.00
5780;BME280;2916;49.798;10.022;2023-03-15T06:29:19;144435.25;;;0.41;100.00
5780;BME280;2916;49.798;10.022;2023-03-15T06:31:47;144443.88;;;0.45;100.00
5780;BME280;2916;49.798;10.022;2023-03-15T06:34:15;144452.50;;;0.48;100.00
5780;BME280;2916;49.798;10.022;2023-03-15T06:36:42;144467.25;;;0.55;100.00
5780;BME280;2916;49.798;10.022;2023-03-15T06:39:10;144475.88;;;0.58;100.00
5780;BME280;2916;49.798;10.022;2023-03-15T06:41:38;144484.50;;;0.62;100.00
5780;BME280;2916;49.798;10.022;2023-03-15T06:44:08;144499.31;;;0.68;100.00
5780;BME280;2916;49.798;10.022;2023-03-15T06:46:35;144500.53;;;0.68;100.00
5780;BME280;2916;49.798;10.022;2023-03-15T06:49:03;144500.53;;;0.68;100.00
5780;BME280;2916;49.798;10.022;2023-03-15T06:51:30;144501.75;;;0.69;99.95
5780;BME280;2916;49.798;10.022;2023-03-15T06:53:57;144489.44;;;0.64;99.71
5780;BME280;2916;49.798;10.022;2023-03-15T06:56:24;144474.66;;;0.58;99.21
5780;BME280;2916;49.798;10.022;2023-03-15T06:58:52;144436.47;;;0.42;99.76
5780;BME280;2916;49.798;10.022;2023-03-15T07:01:20;144467.25;;;0.55;99.62
5780;BME280;2916;49.798;10.022;2023-03-15T07:03:47;144361.34;;;0.11;99.50
5780;BME280;2916;49.798;10.022;2023-03-15T07:06:14;144469.75;;;0.56;99.49
5780;BME280;2916;49.798;10.022;2023-03-15T07:08:42;144498.06;;;0.67;99.59
5780;BME280;2916;49.798;10.022;2023-03-15T07:11:09;144569.50;;;0.97;98.92
5780;BME280;2916;49.798;10.022;2023-03-15T07:13:36;144642.22;;;1.27;97.30
5780;BME280;2916;49.798;10.022;2023-03-15T07:16:04;144623.72;;;1.19;96.21
5780;BME280;2916;49.798;10.022;2023-03-15T07:18:33;144696.44;;;1.50;95.52
5780;BME280;2916;49.798;10.022;2023-03-15T07:21:03;144777.78;;;1.83;94.02
5780;BME280;2916;49.798;10.022;2023-03-15T07:23:33;144850.53;;;2.13;92.19
5780;BME280;2916;49.798;10.022;2023-03-15T07:26:00;144946.72;;;2.53;90.92
5780;BME280;2916;49.798;10.022;2023-03-15T07:28:28;144947.97;;;2.54;88.87
5780;BME280;2916;49.798;10.022;2023-03-15T07:30:57;145051.59;;;2.97;88.27
5780;BME280;2916;49.798;10.022;2023-03-15T07:33:27;144996.06;;;2.74;88.75
5780;BME280;2916;49.798;10.022;2023-03-15T07:35:56;145046.66;;;2.94;89.44
5780;BME280;2916;49.798;10.022;2023-03-15T07:38:25;144978.78;;;2.66;89.06
5780;BME280;2916;49.798;10.022;2023-03-15T07:40:54;145054.06;;;2.98;89.72
5780;BME280;2916;49.798;10.022;2023-03-15T07:43:22;145009.66;;;2.79;87.61
5780;BME280;2916;49.798;10.022;2023-03-15T07:45:49;144961.50;;;2.59;87.74
5780;BME280;2916;49.798;10.022;2023-03-15T07:48:17;144943.06;;;2.52;88.48
5780;BME280;2916;49.798;10.022;2023-03-15T07:50:45;144933.16;;;2.47;88.32
5780;BME280;2916;49.798;10.022;2023-03-15T07:53:14;144940.56;;;2.51;88.14
5780;BME280;2916;49.798;10.022;2023-03-15T07:55:41;144945.50;;;2.53;88.20
5780;BME280;2916;49.798;10.022;2023-03-15T07:58:09;144931.91;;;2.47;88.34
5780;BME280;2916;49.798;10.022;2023-03-15T08:00:36;144939.31;;;2.50;89.12
5780;BME280;2916;49.798;10.022;2023-03-15T08:03:04;144886.31;;;2.28;89.06
5780;BME280;2916;49.798;10.022;2023-03-15T08:05:32;144886.31;;;2.28;90.35
5780;BME280;2916;49.798;10.022;2023-03-15T08:07:59;144853.00;;;2.14;91.03
5780;BME280;2916;49.798;10.022;2023-03-15T08:10:28;144864.09;;;2.19;91.89
5780;BME280;2916;49.798;10.022;2023-03-15T08:12:55;144783.97;;;1.86;92.30
5780;BME280;2916;49.798;10.022;2023-03-15T08:15:23;144772.88;;;1.81;93.33
5780;BME280;2916;49.798;10.022;2023-03-15T08:17:50;144767.91;;;1.79;94.94
5780;BME280;2916;49.798;10.022;2023-03-15T08:20:17;144785.19;;;1.86;96.16
5780;BME280;2916;49.798;10.022;2023-03-15T08:22:47;144756.84;;;1.75;96.95
5780;BME280;2916;49.798;10.022;2023-03-15T08:25:18;144749.44;;;1.71;96.67
5780;BME280;2916;49.798;10.022;2023-03-15T08:27:47;144690.28;;;1.47;98.34
5780;BME280;2916;49.798;10.022;2023-03-15T08:32:58;144592.94;;;1.07;100.00
5780;BME280;2916;49.798;10.022;2023-03-15T08:35:25;144612.66;;;1.15;100.00
5780;BME280;2916;49.798;10.022;2023-03-15T08:37:52;144597.84;;;1.09;100.00
5780;BME280;2916;49.798;10.022;2023-03-15T08:40:20;144587.97;;;1.05;100.00
5780;BME280;2916;49.798;10.022;2023-03-15T08:42:52;144583.06;;;1.03;100.00
5780;BME280;2916;49.798;10.022;2023-03-15T08:45:20;144558.41;;;0.92;100.00
5780;BME280;2916;49.798;10.022;2023-03-15T08:47:48;144563.38;;;0.94;100.00
5780;BME280;2916;49.798;10.022;2023-03-15T08:50:16;144551.00;;;0.89;100.00
5780;BME280;2916;49.798;10.022;2023-03-15T08:52:43;144551.00;;;0.89;100.00
5780;BME280;2916;49.798;10.022;2023-03-15T08:55:11;144578.13;;;1.01;100.00
5780;BME280;2916;49.798;10.022;2023-03-15T08:57:40;144560.88;;;0.93;100.00
5780;BME280;2916;49.798;10.022;2023-03-15T09:00:11;144554.75;;;0.91;100.00
5780;BME280;2916;49.798;10.022;2023-03-15T09:02:46;144586.75;;;1.04;100.00
5780;BME280;2916;49.798;10.022;2023-03-15T09:05:16;144652.06;;;1.31;100.00
5780;BME280;2916;49.798;10.022;2023-03-15T09:07:44;144675.47;;;1.41;100.00
5780;BME280;2916;49.798;10.022;2023-03-15T09:10:14;144682.88;;;1.44;100.00
5780;BME280;2916;49.798;10.022;2023-03-15T09:12:43;144660.69;;;1.35;100.00
5780;BME280;2916;49.798;10.022;2023-03-15T09:15:17;144628.63;;;1.21;100.00
5780;BME280;2916;49.798;10.022;2023-03-15T09:17:44;144647.13;;;1.29;100.00
5780;BME280;2916;49.798;10.022;2023-03-15T09:20:13;144661.94;;;1.35;100.00
5780;BME280;2916;49.798;10.022;2023-03-15T09:22:41;144661.94;;;1.35;100.00
5780;BME280;2916;49.798;10.022;2023-03-15T09:25:09;144745.75;;;1.70;100.00
5780;BME280;2916;49.798;10.022;2023-03-15T09:27:37;144772.88;;;1.81;100.00
5780;BME280;2916;49.798;10.022;2023-03-15T09:30:05;144779.00;;;1.84;100.00
5780;BME280;2916;49.798;10.022;2023-03-15T09:32:34;144767.91;;;1.79;100.00
5780;BME280;2916;49.798;10.022;2023-03-15T09:35:02;144763.00;;;1.77;100.00
5780;BME280;2916;49.798;10.022;2023-03-15T09:37:30;144798.72;;;1.92;100.00
5780;BME280;2916;49.798;10.022;2023-03-15T09:39:57;144788.88;;;1.88;100.00
5780;BME280;2916;49.798;10.022;2023-03-15T09:42:34;144772.88;;;1.81;100.00
5780;BME280;2916;49.798;10.022;2023-03-15T09:45:14;144807.38;;;1.95;100.00
5780;BME280;2916;49.798;10.022;2023-03-15T09:47:56;144871.50;;;2.22;100.00
5780;BME280;2916;49.798;10.022;2023-03-15T09:50:29;144829.59;;;2.05;100.00
5780;BME280;2916;49.798;10.022;2023-03-15T09:53:00;144873.94;;;2.23;100.00
5780;BME280;2916;49.798;10.022;2023-03-15T09:55:29;144908.50;;;2.37;100.00
5780;BME280;2916;49.798;10.022;2023-03-15T09:57:59;144972.66;;;2.64;100.00
5780;BME280;2916;49.798;10.022;2023-03-15T10:00:36;144968.94;;;2.62;100.00
5780;BME280;2916;49.798;10.022;2023-03-15T10:03:05;144996.06;;;2.74;100.00
5780;BME280;2916;49.798;10.022;2023-03-15T10:05:43;145007.16;;;2.78;100.00
5780;BME280;2916;49.798;10.022;2023-03-15T10:08:12;145013.34;;;2.81;100.00
5780;BME280;2916;49.798;10.022;2023-03-15T10:10:50;145015.81;;;2.82;100.00
5780;BME280;2916;49.798;10.022;2023-03-15T10:13:42;145002.25;;;2.76;99.70
5780;BME280;2916;49.798;10.022;2023-03-15T10:16:28;145040.50;;;2.92;100.00
5780;BME280;2916;49.798;10.022;2023-03-15T10:19:13;145044.19;;;2.93;99.16
5780;BME280;2916;49.798;10.022;2023-03-15T10:21:53;144970.16;;;2.63;99.14
5780;BME280;2916;49.798;10.022;2023-03-15T10:24:32;144972.66;;;2.64;99.00
5780;BME280;2916;49.798;10.022;2023-03-15T10:27:13;145063.94;;;3.02;98.43
5780;BME280;2916;49.798;10.022;2023-03-15T10:29:43;145049.16;;;2.95;98.19
5780;BME280;2916;49.798;10.022;2023-03-15T10:32:17;145040.50;;;2.92;96.99
5780;BME280;2916;49.798;10.022;2023-03-15T10:34:50;145063.94;;;3.02;97.60
5780;BME280;2916;49.798;10.022;2023-03-15T10:37:18;145112.06;;;3.22;97.63
5780;BME280;2916;49.798;10.022;2023-03-15T10:39:53;145120.69;;;3.25;96.96
5780;BME280;2916;49.798;10.022;2023-03-15T10:42:25;145152.81;;;3.38;96.44
5780;BME280;2916;49.798;10.022;2023-03-15T10:44:52;145158.97;;;3.41;95.81
5780;BME280;2916;49.798;10.022;2023-03-15T10:47:21;145204.66;;;3.60;96.57
5780;BME280;2916;49.798;10.022;2023-03-15T10:49:54;145246.59;;;3.77;95.86
5780;BME280;2916;49.798;10.022;2023-03-15T10:52:35;145205.88;;;3.60;94.26
5780;BME280;2916;49.798;10.022;2023-03-15T10:55:10;145144.19;;;3.35;92.56
5780;BME280;2916;49.798;10.022;2023-03-15T10:57:41;145239.22;;;3.74;92.98
5780;BME280;2916;49.798;10.022;2023-03-15T11:00:29;145287.38;;;3.94;93.17
5780;BME280;2916;49.798;10.022;2023-03-15T11:03:04;145288.63;;;3.94;92.82
5780;BME280;2916;49.798;10.022;2023-03-15T11:05:40;145096.03;;;3.15;92.14
5780;BME280;2916;49.798;10.022;2023-03-15T11:08:12;145219.47;;;3.66;92.97
5780;BME280;2916;49.798;10.022;2023-03-15T11:10:41;145241.69;;;3.75;93.60
5780;BME280;2916;49.798;10.022;2023-03-15T11:13:18;145283.66;;;3.92;94.32
5780;BME280;2916;49.798;10.022;2023-03-15T11:15:57;145221.94;;;3.67;93.13
5780;BME280;2916;49.798;10.022;2023-03-15T11:18:30;145155.28;;;3.39;92.36
5780;BME280;2916;49.798;10.022;2023-03-15T11:21:03;145221.94;;;3.67;92.37
5780;BME280;2916;49.798;10.022;2023-03-15T11:23:36;145234.28;;;3.72;92.76
5780;BME280;2916;49.798;10.022;2023-03-15T11:26:05;145261.44;;;3.83;92.65
5780;BME280;2916;49.798;10.022;2023-03-15T11:28:36;145281.19;;;3.91;92.17
5780;BME280;2916;49.798;10.022;2023-03-15T11:31:05;145308.38;;;4.03;92.17
5780;BME280;2916;49.798;10.022;2023-03-15T11:33:42;145305.91;;;4.02;92.32
5780;BME280;2916;49.798;10.022;2023-03-15T11:36:19;145255.25;;;3.81;92.70
5780;BME280;2916;49.798;10.022;2023-03-15T11:38:48;145318.25;;;4.07;92.03
5780;BME280;2916;49.798;10.022;2023-03-15T11:41:28;145323.22;;;4.09;92.05
5780;BME280;2916;49.798;10.022;2023-03-15T11:44:11;145326.91;;;4.10;92.89
5780;BME280;2916;49.798;10.022;2023-03-15T11:46:48;145330.59;;;4.12;93.75
5780;BME280;2916;49.798;10.022;2023-03-15T11:49:32;145239.22;;;3.74;91.19
5780;BME280;2916;49.798;10.022;2023-03-15T11:52:03;145241.69;;;3.75;93.06
5780;BME280;2916;49.798;10.022;2023-03-15T11:54:32;145310.81;;;4.04;93.55
5780;BME280;2916;49.798;10.022;2023-03-15T11:57:02;145242.91;;;3.76;92.94
5780;BME280;2916;49.798;10.022;2023-03-15T11:59:32;145229.34;;;3.70;93.81
5780;BME280;2916;49.798;10.022;2023-03-15T12:02:36;145368.88;;;4.28;93.04
5780;BME280;2916;49.798;10.022;2023-03-15T12:05:43;145320.72;;;4.08;92.29
5780;BME280;2916;49.798;10.022;2023-03-15T12:08:22;145355.31;;;4.22;91.80
5780;BME280;2916;49.798;10.022;2023-03-15T12:10:51;145271.31;;;3.87;91.07
5780;BME280;2916;49.798;10.022;2023-03-15T12:13:25;145320.72;;;4.08;91.96
5780;BME280;2916;49.798;10.022;2023-03-15T12:15:54;145356.53;;;4.23;92.11
5780;BME280;2916;49.798;10.022;2023-03-15T12:18:28;145302.19;;;4.00;90.83
5780;BME280;2916;49.798;10.022;2023-03-15T12:21:30;145370.09;;;4.28;91.24
5780;BME280;2916;49.798;10.022;2023-03-15T12:24:04;145341.69;;;4.16;89.31
5780;BME280;2916;49.798;10.022;2023-03-15T12:26:40;145389.91;;;4.36;89.05
5780;BME280;2916;49.798;10.022;2023-03-15T12:29:20;145212.06;;;3.63;87.67
5780;BME280;2916;49.798;10.022;2023-03-15T12:31:57;145335.53;;;4.14;88.80
5780;BME280;2916;49.798;10.022;2023-03-15T12:34:43;145392.38;;;4.37;87.88
5780;BME280;2916;49.798;10.022;2023-03-15T12:37:19;145413.34;;;4.46;87.92
5780;BME280;2916;49.798;10.022;2023-03-15T12:39:57;145404.72;;;4.42;88.12
5780;BME280;2916;49.798;10.022;2023-03-15T12:43:08;145449.19;;;4.61;88.39
5780;BME280;2916;49.798;10.022;2023-03-15T12:45:45;145485.03;;;4.76;88.67
5780;BME280;2916;49.798;10.022;2023-03-15T12:48:25;145502.31;;;4.83;88.70
5780;BME280;2916;49.798;10.022;2023-03-15T12:51:03;145513.47;;;4.87;87.97
5780;BME280;2916;49.798;10.022;2023-03-15T12:53:41;145485.03;;;4.76;87.20
5780;BME280;2916;49.798;10.022;2023-03-15T12:56:44;145422.00;;;4.50;87.41
5780;BME280;2916;49.798;10.022;2023-03-15T12:59:29;145538.16;;;4.98;87.89
5780;BME280;2916;49.798;10.022;2023-03-15T13:02:00;145461.53;;;4.66;85.15
5780;BME280;2916;49.798;10.022;2023-03-15T13:04:29;145483.75;;;4.75;86.30
5780;BME280;2916;49.798;10.022;2023-03-15T13:07:23;145509.72;;;4.86;85.98
5780;BME280;2916;49.798;10.022;2023-03-15T13:10:23;145580.19;;;5.15;86.48
5780;BME280;2916;49.798;10.022;2023-03-15T13:13:06;145674.13;;;5.54;85.13
5780;BME280;2916;49.798;10.022;2023-03-15T13:15:43;145571.53;;;5.11;84.27
5780;BME280;2916;49.798;10.022;2023-03-15T13:18:21;145609.84;;;5.27;83.98
5780;BME280;2916;49.798;10.022;2023-03-15T13:21:04;145471.41;;;4.70;82.36
5780;BME280;2916;49.798;10.022;2023-03-15T13:23:37;145665.50;;;5.50;83.25
5780;BME280;2916;49.798;10.022;2023-03-15T13:26:27;145570.31;;;5.11;81.93
5780;BME280;2916;49.798;10.022;2023-03-15T13:29:09;145613.56;;;5.29;82.68